Time;durP1;ratioP1;P1;durP2;ratioP2;P2;SDS_P1;SDS_P2;PMS_P1;PMS_P2;Temp;Humidity;BMP_temperature;BMP_pressure;BME280_temperature;BME280_humidity;BME280_pressure;Samples;Min_cycle;Max_cycle;Signal;HPM_P1;HPM_P2
2021/01/20 00:00:57;;;;;;;138.83;61.27;;;;;;;0.60;86.48;99459.56;1720502;82;27309;-73
2021/01/20 00:03:24;;;;;;;136.50;61.73;;;;;;;0.61;86.39;99466.42;1721602;82;21194;-72
2021/01/20 00:05:50;;;;;;;139.27;58.77;;;;;;;0.60;86.48;99463.45;1720037;82;21573;-73
2021/01/20 00:08:18;;;;;;;118.23;61.03;;;;;;;0.63;86.40;99464.54;1719195;82;20989;-73
2021/01/20 00:10:43;;;;;;;126.80;63.35;;;;;;;0.59;86.48;99464.42;1719349;82;21605;-73
2021/01/20 00:13:09;;;;;;;130.30;57.37;;;;;;;0.57;86.84;99467.57;1720928;82;22932;-74
2021/01/20 00:15:35;;;;;;;122.47;59.57;;;;;;;0.63;86.71;99469.73;1715298;82;24272;-73
2021/01/20 00:18:01;;;;;;;123.43;58.23;;;;;;;0.64;86.69;99467.51;1719829;82;21384;-74
2021/01/20 00:20:26;;;;;;;121.30;56.20;;;;;;;0.65;86.79;99460.09;1718991;82;20953;-74
2021/01/20 00:22:54;;;;;;;127.00;58.53;;;;;;;0.62;86.76;99459.00;1721795;82;20985;-74
2021/01/20 00:25:19;;;;;;;117.90;58.52;;;;;;;0.64;86.69;99463.61;1716542;82;21191;-74
2021/01/20 00:27:45;;;;;;;119.97;54.63;;;;;;;0.62;86.80;99462.90;1720499;82;23274;-74
2021/01/20 00:30:11;;;;;;;116.93;54.60;;;;;;;0.64;86.80;99464.91;1717797;82;21417;-73
2021/01/20 00:32:37;;;;;;;110.60;52.10;;;;;;;0.68;86.71;99472.86;1722678;82;21251;-74
2021/01/20 00:35:08;;;;;;;105.03;54.57;;;;;;;0.66;86.87;99468.70;1701990;82;20938;-74
2021/01/20 00:37:34;;;;;;;111.25;51.10;;;;;;;0.64;86.89;99467.51;1690211;84;21699;-74
2021/01/20 00:40:00;;;;;;;118.83;55.83;;;;;;;0.69;86.66;99466.70;1690103;84;22759;-74
2021/01/20 00:42:27;;;;;;;111.65;55.05;;;;;;;0.62;86.87;99465.50;1690380;83;21198;-74
2021/01/20 00:44:53;;;;;;;113.97;49.05;;;;;;;0.67;86.77;99458.67;1692359;83;21251;-74
2021/01/20 00:47:19;;;;;;;104.93;53.50;;;;;;;0.67;86.74;99452.18;1692871;83;20974;-74
2021/01/20 00:49:44;;;;;;;103.27;52.27;;;;;;;0.62;86.83;99459.00;1690246;83;23182;-74
2021/01/20 00:52:10;;;;;;;104.50;49.13;;;;;;;0.64;86.93;99453.70;1690274;84;22376;-74
2021/01/20 00:54:36;;;;;;;102.57;47.73;;;;;;;0.59;87.03;99450.13;1690113;84;21355;-75
2021/01/20 00:57:02;;;;;;;102.40;51.13;;;;;;;0.63;86.85;99446.35;1690473;84;21731;-73
2021/01/20 00:59:27;;;;;;;98.43;49.97;;;;;;;0.56;87.04;99445.16;1690195;84;20926;-75
2021/01/20 01:01:57;;;;;;;107.63;49.03;;;;;;;0.58;86.83;99440.66;1690381;84;23920;-74
2021/01/20 01:04:21;;;;;;;;;;;;;;;0.56;87.00;99445.16;1693259;84;21144;-74
2021/01/20 01:06:46;;;;;;;94.32;43.25;;;;;;;0.56;87.14;99434.76;1692100;84;22064;-74
2021/01/20 01:09:12;;;;;;;97.73;44.13;;;;;;;0.62;86.87;99435.63;1692253;84;21001;-74
2021/01/20 01:11:38;;;;;;;86.92;44.38;;;;;;;0.62;86.63;99438.22;1691780;84;21215;-73
2021/01/20 01:14:04;;;;;;;101.87;47.20;;;;;;;0.63;86.75;99435.96;1689439;84;25810;-74
2021/01/20 01:16:30;;;;;;;95.40;45.40;;;;;;;0.63;86.62;99438.55;1692222;84;22251;-74
2021/01/20 01:18:57;;;;;;;95.57;45.12;;;;;;;0.64;86.59;99438.92;1674361;85;21830;-74
2021/01/20 01:21:23;;;;;;;97.00;42.67;;;;;;;0.66;86.56;99434.44;1692363;84;21796;-73
2021/01/20 01:23:49;;;;;;;88.33;45.90;;;;;;;0.62;86.41;99435.63;1676352;84;21474;-73
2021/01/20 01:26:14;;;;;;;85.00;43.90;;;;;;;0.61;86.47;99439.14;1676571;85;22981;-74
2021/01/20 01:28:40;;;;;;;92.23;43.27;;;;;;;0.61;86.47;99437.84;1678350;84;23443;-74
2021/01/20 01:31:06;;;;;;;86.73;42.27;;;;;;;0.59;86.44;99440.19;1676672;84;21414;-74
2021/01/20 01:33:32;;;;;;;86.93;43.77;;;;;;;0.63;86.29;99435.96;1692526;84;21132;-74
2021/01/20 01:35:58;;;;;;;80.77;42.33;;;;;;;0.61;86.37;99435.25;1667757;85;20990;-74
2021/01/20 01:38:24;;;;;;;85.40;38.48;;;;;;;0.63;86.27;99428.16;1672269;85;21188;-73
2021/01/20 01:40:50;;;;;;;79.00;41.50;;;;;;;0.57;86.21;99423.41;1671165;85;23222;-73
2021/01/20 01:43:16;;;;;;;87.00;42.20;;;;;;;0.60;86.16;99425.78;1668553;84;21232;-73
2021/01/20 01:45:41;;;;;;;94.67;42.33;;;;;;;0.59;86.16;99418.95;1670377;84;21640;-72
2021/01/20 01:48:07;;;;;;;86.47;43.90;;;;;;;0.57;86.29;99415.61;1662824;85;21505;-72
2021/01/20 01:50:33;;;;;;;88.17;41.03;;;;;;;0.58;86.34;99413.39;1664024;85;22975;-72
2021/01/20 01:52:59;;;;;;;87.17;42.23;;;;;;;0.58;86.21;99410.78;1669952;85;21282;-74
2021/01/20 01:55:24;;;;;;;88.63;42.63;;;;;;;0.59;86.09;99408.56;1668444;85;21476;-73
2021/01/20 01:57:50;;;;;;;87.97;43.03;;;;;;;0.48;86.29;99413.67;1668703;84;21707;-73
2021/01/20 02:00:16;;;;;;;83.90;40.60;;;;;;;0.51;86.34;99411.71;1668768;85;21037;-73
2021/01/20 02:02:42;;;;;;;85.00;41.90;;;;;;;0.48;86.33;99413.67;1669676;84;21189;-73
2021/01/20 02:05:08;;;;;;;87.10;40.90;;;;;;;0.55;86.27;99413.61;1661323;85;23359;-73
2021/01/20 02:07:35;;;;;;;89.00;44.53;;;;;;;0.53;86.17;99421.98;1667073;85;21221;-73
2021/01/20 02:10:03;;;;;;;82.55;36.60;;;;;;;0.40;86.21;99403.02;1669424;85;21676;-74
2021/01/20 02:13:14;;;;;;;80.45;42.90;;;;;;;0.55;86.22;99428.38;1664988;85;21217;-73
2021/01/20 02:15:59;;;;;;;88.30;40.83;;;;;;;0.51;86.23;99422.55;1664096;85;21185;-73
2021/01/20 02:18:27;;;;;;;89.60;40.35;;;;;;;0.48;86.45;99423.62;1668081;84;21255;-72
2021/01/20 02:21:35;;;;;;;81.82;40.50;;;;;;;0.49;86.50;99428.33;1668358;85;25472;-73
2021/01/20 02:24:05;;;;;;;89.30;39.03;;;;;;;0.50;86.51;99426.11;1663802;84;21216;-73
2021/01/20 02:26:56;;;;;;;86.00;40.23;;;;;;;0.51;86.34;99426.45;1669178;84;21207;-73
2021/01/20 02:29:39;;;;;;;85.25;40.38;;;;;;;0.53;86.14;99423.29;1669201;84;21842;-72
2021/01/20 02:32:05;;;;;;;84.17;40.12;;;;;;;0.39;86.00;99411.73;1668906;84;21575;-73
2021/01/20 02:34:31;;;;;;;89.15;41.35;;;;;;;0.50;85.97;99426.11;1667409;85;22024;-71
2021/01/20 02:36:57;;;;;;;85.87;40.23;;;;;;;0.52;85.83;99430.71;1704507;82;21018;-73
2021/01/20 02:39:22;;;;;;;81.13;40.93;;;;;;;0.54;85.84;99430.13;1677583;84;20977;-73
2021/01/20 02:41:48;;;;;;;92.10;40.27;;;;;;;0.46;85.93;99425.95;1702674;84;23889;-73
2021/01/20 02:44:14;;;;;;;93.43;42.47;;;;;;;0.48;86.15;99419.72;1704417;84;21500;-73
2021/01/20 02:46:40;;;;;;;81.77;42.50;;;;;;;0.43;86.04;99413.19;1703287;84;22137;-73
2021/01/20 02:49:05;;;;;;;91.33;40.67;;;;;;;0.37;86.34;99417.03;1703766;83;21306;-73
2021/01/20 02:51:53;;;;;;;87.57;41.73;;;;;;;0.42;86.28;99421.91;1704184;82;20964;-73
2021/01/20 02:54:19;;;;;;;87.25;40.35;;;;;;;0.45;86.23;99422.54;1700037;84;21135;-74
2021/01/20 02:56:47;;;;;;;78.55;39.60;;;;;;;0.43;85.93;99414.48;1704278;82;21245;-73
2021/01/20 02:59:13;;;;;;;79.82;40.60;;;;;;;0.39;86.00;99416.92;1703111;84;21245;-74
2021/01/20 03:01:40;;;;;;;81.40;36.50;;;;;;;0.47;85.86;99415.45;1704429;84;21632;-74
2021/01/20 03:04:06;;;;;;;87.00;39.92;;;;;;;0.42;85.70;99425.35;1679559;84;21151;-75
2021/01/20 03:06:31;;;;;;;84.67;40.20;;;;;;;0.47;85.72;99413.34;1704426;83;24826;-73
2021/01/20 03:08:57;;;;;;;83.63;38.53;;;;;;;0.50;85.86;99419.61;1704484;84;22338;-73
2021/01/20 03:11:23;;;;;;;75.73;39.13;;;;;;;0.43;85.80;99413.19;1704126;82;21320;-74
2021/01/20 03:13:49;;;;;;;79.20;38.47;;;;;;;0.44;85.77;99414.86;1702496;84;21005;-74
2021/01/20 03:16:19;;;;;;;81.93;40.50;;;;;;;0.45;85.54;99418.64;1704149;84;20981;-74
2021/01/20 03:18:44;;;;;;;80.32;38.02;;;;;;;0.48;85.60;99416.27;1680968;84;21231;-73
2021/01/20 03:21:10;;;;;;;77.50;37.07;;;;;;;0.50;85.43;99410.52;1704051;83;25279;-73
2021/01/20 03:23:36;;;;;;;82.03;40.13;;;;;;;0.55;85.45;99412.30;1705048;82;21244;-74
2021/01/20 03:26:01;;;;;;;75.90;36.90;;;;;;;0.55;85.31;99416.20;1703867;84;20934;-73
2021/01/20 03:28:27;;;;;;;77.17;38.50;;;;;;;0.54;85.32;99415.83;1703084;83;20948;-73
2021/01/20 03:30:53;;;;;;;79.63;37.47;;;;;;;0.63;85.09;99416.47;1701316;84;21938;-73
2021/01/20 03:33:19;;;;;;;76.63;41.33;;;;;;;0.65;84.93;99413.31;1704246;84;24241;-73
2021/01/20 03:35:44;;;;;;;83.93;38.33;;;;;;;0.63;84.76;99416.47;1697980;83;21316;-73
2021/01/20 03:38:10;;;;;;;87.07;38.93;;;;;;;0.59;84.76;99415.05;1692090;84;20903;-73
2021/01/20 03:40:36;;;;;;;71.03;38.93;;;;;;;0.53;84.90;99415.02;1691932;83;20955;-73
2021/01/20 03:43:02;;;;;;;84.85;38.45;;;;;;;0.51;85.12;99412.16;1693132;83;21653;-72
2021/01/20 03:45:28;;;;;;;78.40;37.87;;;;;;;0.49;85.11;99417.94;1692518;83;23696;-72
2021/01/20 03:47:54;;;;;;;80.07;37.63;;;;;;;0.51;85.28;99419.50;1690414;84;21222;-72
2021/01/20 03:50:19;;;;;;;82.83;38.97;;;;;;;0.49;85.16;99408.85;1689968;84;21056;-72
2021/01/20 03:52:45;;;;;;;75.70;38.43;;;;;;;0.50;85.13;99410.52;1692300;83;21131;-73
2021/01/20 03:55:12;;;;;;;84.63;38.93;;;;;;;0.58;85.08;99412.09;1691702;84;25435;-72
2021/01/20 03:57:38;;;;;;;81.45;37.83;;;;;;;0.55;85.18;99411.01;1688935;84;21136;-72
2021/01/20 04:00:05;;;;;;;76.92;39.10;;;;;;;0.56;85.06;99414.42;1687484;83;21528;-72
2021/01/20 04:02:31;;;;;;;80.55;34.60;;;;;;;0.47;85.30;99409.44;1690236;84;21618;-72
2021/01/20 04:04:57;;;;;;;80.07;37.10;;;;;;;0.46;85.39;99405.17;1691273;84;21016;-73
2021/01/20 04:07:22;;;;;;;83.83;39.03;;;;;;;0.44;85.65;99414.86;1692118;84;23208;-73
2021/01/20 04:09:48;;;;;;;72.53;37.53;;;;;;;0.53;85.32;99412.90;1691375;84;22364;-73
2021/01/20 04:12:14;;;;;;;76.00;36.77;;;;;;;0.58;85.19;99415.16;1676879;84;21789;-74
2021/01/20 04:14:40;;;;;;;76.17;39.45;;;;;;;0.63;84.96;99408.67;1692162;83;21721;-74
2021/01/20 04:17:06;;;;;;;81.23;37.60;;;;;;;0.59;84.95;99410.30;1671292;84;22996;-73
2021/01/20 04:19:31;;;;;;;78.97;37.83;;;;;;;0.56;85.04;99402.73;1680322;84;22991;-73
2021/01/20 04:21:57;;;;;;;73.03;36.60;;;;;;;0.59;84.84;99402.06;1692026;84;22269;-73
2021/01/20 04:24:23;;;;;;;75.67;36.43;;;;;;;0.61;84.73;99392.38;1691802;83;21134;-73
2021/01/20 04:26:49;;;;;;;75.97;37.07;;;;;;;0.63;84.68;99381.88;1690388;84;20957;-73
2021/01/20 04:29:16;;;;;;;73.07;36.70;;;;;;;0.61;84.76;99380.69;1690404;84;20978;-74
2021/01/20 04:31:42;;;;;;;72.72;37.98;;;;;;;0.61;84.83;99381.98;1692137;84;21153;-74
2021/01/20 04:34:07;;;;;;;78.17;36.20;;;;;;;0.62;84.81;99394.05;1675078;84;24455;-74
2021/01/20 04:36:34;;;;;;;77.07;36.27;;;;;;;0.64;84.74;99396.05;1673572;83;21435;-74
2021/01/20 04:38:59;;;;;;;71.60;38.02;;;;;;;0.62;84.85;99400.55;1663637;86;21223;-74
2021/01/20 04:41:27;;;;;;;79.30;37.17;;;;;;;0.67;84.70;99395.83;1663948;84;21093;-74
2021/01/20 04:43:52;;;;;;;77.67;34.18;;;;;;;0.67;84.67;99403.62;1665024;86;21176;-74
2021/01/20 04:46:18;;;;;;;70.57;37.60;;;;;;;0.63;84.80;99394.39;1662788;86;23269;-73
2021/01/20 04:48:44;;;;;;;72.97;34.90;;;;;;;0.63;84.91;99395.69;1648849;86;21245;-73
2021/01/20 04:51:09;;;;;;;74.37;36.03;;;;;;;0.61;84.89;99402.77;1663068;86;20951;-73
2021/01/20 04:53:38;;;;;;;69.53;37.00;;;;;;;0.60;85.06;99396.39;1661788;86;21018;-73
2021/01/20 04:56:11;;;;;;;75.45;34.92;;;;;;;0.64;84.92;99396.05;1664641;86;21177;-73
2021/01/20 04:58:37;;;;;;;74.20;34.80;;;;;;;0.61;84.98;99391.08;1663564;86;21149;-73
2021/01/20 05:01:03;;;;;;;70.37;37.93;;;;;;;0.55;85.16;99392.00;1664277;86;21391;-73
2021/01/20 05:03:29;;;;;;;77.45;35.28;;;;;;;0.51;85.48;99384.88;1664674;86;21229;-73
2021/01/20 05:05:55;;;;;;;73.12;35.20;;;;;;;0.54;85.70;99397.65;1663970;86;21197;-72
2021/01/20 05:08:22;;;;;;;77.17;36.20;;;;;;;0.51;85.76;99387.48;1659633;86;23824;-73
2021/01/20 05:10:49;;;;;;;78.70;35.87;;;;;;;0.56;85.63;99388.00;1664537;86;21197;-73
2021/01/20 05:13:31;;;;;;;72.60;32.00;;;;;;;0.51;85.71;99375.79;1663062;86;21903;-72
2021/01/20 05:15:57;;;;;;;67.80;36.03;;;;;;;0.61;85.51;99388.48;1660739;86;21235;-73
2021/01/20 05:18:23;;;;;;;70.45;35.50;;;;;;;0.59;85.72;99394.72;1664747;85;21173;-73
2021/01/20 05:20:49;;;;;;;74.47;33.95;;;;;;;0.56;85.79;99399.69;1664160;86;21201;-73
2021/01/20 05:23:14;;;;;;;74.53;35.40;;;;;;;0.61;85.67;99399.36;1664070;86;21031;-73
2021/01/20 05:25:43;;;;;;;67.00;33.17;;;;;;;0.65;85.66;99399.02;1662119;86;21385;-73
2021/01/20 05:28:27;;;;;;;66.72;35.73;;;;;;;0.66;85.58;99394.16;1661824;86;21330;-73
2021/01/20 05:30:58;;;;;;;71.00;34.15;;;;;;;0.65;85.66;99396.42;1665100;84;21189;-74
2021/01/20 05:33:31;;;;;;;76.87;35.52;;;;;;;0.61;85.79;99392.86;1662796;86;21197;-74
2021/01/20 05:36:10;;;;;;;68.75;34.35;;;;;;;0.63;85.73;99396.98;1678642;83;21211;-74
2021/01/20 05:38:51;;;;;;;74.07;34.03;;;;;;;0.59;85.80;99394.27;1678397;84;21250;-75
2021/01/20 05:41:28;;;;;;;65.28;32.50;;;;;;;0.63;85.98;99402.19;1673371;84;21160;-75
2021/01/20 05:44:15;;;;;;;73.22;35.08;;;;;;;0.59;86.17;99397.31;1711838;82;21211;-75
2021/01/20 05:46:43;;;;;;;77.70;34.98;;;;;;;0.63;86.12;99398.77;1714768;82;21255;-74
2021/01/20 05:49:23;;;;;;;;;;;;;;;0.59;86.60;99398.17;1720321;83;21497;-74
2021/01/20 05:51:49;;;;;;;70.28;33.65;;;;;;;0.49;86.98;99401.06;1715775;83;21938;-74
2021/01/20 05:54:15;;;;;;;77.67;35.90;;;;;;;0.48;86.99;99399.39;1719962;82;21145;-74
2021/01/20 05:56:40;;;;;;;69.40;33.42;;;;;;;0.49;87.38;99397.16;1696553;83;21489;-74
2021/01/20 05:59:10;;;;;;;71.37;33.07;;;;;;;0.58;86.98;99407.37;1718700;83;21961;-73
2021/01/20 06:01:37;;;;;;;63.83;32.85;;;;;;;0.64;86.75;99407.75;1681331;84;21189;-74
2021/01/20 06:04:04;;;;;;;68.40;31.90;;;;;;;0.66;86.54;99411.05;1672146;84;21656;-74
2021/01/20 06:06:30;;;;;;;;;;;;;;;0.63;86.62;99414.36;1717207;82;21218;-74
2021/01/20 06:08:56;;;;;;;61.20;28.98;;;;;;;0.67;86.64;99411.42;1718878;82;20209;-74
2021/01/20 06:11:21;;;;;;;65.00;30.93;;;;;;;0.67;86.52;99414.02;1717377;82;22936;-74
2021/01/20 06:13:47;;;;;;;71.27;33.83;;;;;;;0.72;86.44;99414.98;1715217;83;21280;-74
2021/01/20 06:16:16;;;;;;;64.10;33.92;;;;;;;0.57;87.01;99405.22;1713371;82;21279;-74
2021/01/20 06:18:53;;;;;;;64.10;29.80;;;;;;;0.62;87.00;99403.59;1716789;83;21195;-74
2021/01/20 06:21:19;;;;;;;65.10;28.87;;;;;;;0.56;87.40;99403.59;1717023;82;21582;-74
2021/01/20 06:24:02;;;;;;;64.63;32.57;;;;;;;0.66;87.13;99403.26;1715543;82;23028;-75
2021/01/20 06:26:28;;;;;;;63.60;30.50;;;;;;;0.58;87.47;99401.70;1711299;82;21226;-73
2021/01/20 06:29:00;;;;;;;56.63;30.80;;;;;;;0.58;87.56;99406.89;1714998;83;21123;-74
2021/01/20 06:31:26;;;;;;;63.02;30.45;;;;;;;0.60;87.75;99403.70;1718410;82;21235;-74
2021/01/20 06:33:52;;;;;;;60.47;30.47;;;;;;;0.58;88.01;99401.70;1714852;83;21608;-73
2021/01/20 06:36:32;;;;;;;60.83;29.57;;;;;;;0.65;87.75;99402.92;1716233;82;24992;-76
2021/01/20 06:38:58;;;;;;;64.05;31.17;;;;;;;0.71;87.74;99406.37;1715807;82;21213;-75
2021/01/20 06:41:39;;;;;;;64.03;32.67;;;;;;;0.75;88.09;99400.47;1714756;83;21307;-75
2021/01/20 06:44:12;;;;;;;64.55;30.62;;;;;;;0.82;87.55;99406.86;1714601;82;21234;-75
2021/01/20 06:46:38;;;;;;;65.55;31.17;;;;;;;0.82;87.70;99413.84;1718188;81;21661;-74
2021/01/20 06:49:05;;;;;;;53.00;28.73;;;;;;;0.88;87.44;99418.59;1699865;82;21185;-74
2021/01/20 06:51:36;;;;;;;55.12;28.38;;;;;;;0.92;87.46;99409.64;1717975;82;26960;-73
2021/01/20 06:54:08;;;;;;;58.85;28.65;;;;;;;0.97;87.31;99412.72;1713946;82;21226;-73
2021/01/20 06:56:50;;;;;;;55.12;29.65;;;;;;;0.96;87.37;99417.55;1719750;82;21120;-71
2021/01/20 06:59:31;;;;;;;58.17;29.50;;;;;;;0.87;88.01;99416.92;1716807;82;21227;-74
2021/01/20 07:02:10;;;;;;;58.65;31.42;;;;;;;0.93;87.87;99416.47;1716260;82;21654;-72
2021/01/20 07:04:53;;;;;;;55.52;29.25;;;;;;;0.89;88.14;99410.68;1715265;82;21183;-71
2021/01/20 07:07:41;;;;;;;57.80;27.70;;;;;;;0.87;88.81;99407.83;1715570;83;21597;-67
2021/01/20 07:10:08;;;;;;;55.23;27.62;;;;;;;0.89;88.86;99410.68;1697567;83;21855;-67
2021/01/20 07:12:33;;;;;;;43.40;21.35;;;;;;;0.97;88.50;99411.42;1719849;82;21239;-69
2021/01/20 07:15:03;;;;;;;60.23;28.80;;;;;;;0.95;88.68;99417.20;1715697;83;23401;-68
2021/01/20 07:17:32;;;;;;;56.75;29.77;;;;;;;1.02;88.27;99410.59;1677099;82;21231;-68
2021/01/20 07:19:58;;;;;;;56.35;30.30;;;;;;;1.02;88.39;99415.80;1672694;83;21336;-69
2021/01/20 07:22:24;;;;;;;52.30;28.43;;;;;;;1.06;88.16;99410.73;1715139;82;21691;-69
2021/01/20 07:24:50;;;;;;;50.50;28.23;;;;;;;1.15;88.07;99413.59;1715207;82;21148;-69
2021/01/20 07:27:18;;;;;;;60.67;28.53;;;;;;;1.16;88.08;99416.56;1716563;83;27071;-68
2021/01/20 07:29:46;;;;;;;;;;;;;;;1.20;88.05;99419.30;1718745;82;21526;-69
2021/01/20 07:32:11;;;;;;;;;;;;;;;1.16;89.68;99422.58;1718061;82;20455;-68
2021/01/20 07:34:42;;;;;;;58.20;27.20;;;;;;;1.20;91.98;99420.59;1714518;82;20197;-68
2021/01/20 07:37:12;;;;;;;55.10;26.02;;;;;;;1.18;89.82;99414.66;1703188;82;21192;-68
2021/01/20 07:39:38;;;;;;;51.88;27.93;;;;;;;1.26;89.52;99411.04;1691744;84;21228;-69
2021/01/20 07:42:05;;;;;;;53.27;28.23;;;;;;;1.29;89.48;99413.41;1691617;83;24251;-69
2021/01/20 07:44:31;;;;;;;48.85;28.87;;;;;;;1.31;89.51;99418.50;1689446;84;21900;-69
2021/01/20 07:47:03;;;;;;;58.83;29.00;;;;;;;1.31;89.63;99415.41;1676281;85;21213;-69
2021/01/20 07:49:29;;;;;;;50.90;28.98;;;;;;;1.37;89.25;99420.16;1676436;84;21661;-69
2021/01/20 07:52:08;;;;;;;54.83;31.07;;;;;;;1.30;89.74;99413.75;1674900;84;27205;-69
2021/01/20 07:54:42;;;;;;;61.23;29.45;;;;;;;1.27;90.41;99413.98;1690691;84;21220;-69
2021/01/20 07:57:09;;;;;;;53.70;27.42;;;;;;;1.31;90.36;99418.02;1689881;83;21825;-69
2021/01/20 07:59:35;;;;;;;56.23;31.00;;;;;;;1.31;90.31;99410.22;1655706;85;21240;-68
2021/01/20 08:02:12;;;;;;;52.77;29.87;;;;;;;1.33;90.57;99416.13;1690998;83;20950;-66
2021/01/20 08:04:38;;;;;;;;;;;;;;;1.25;90.22;99400.27;1676270;85;21738;-67
2021/01/20 08:07:05;;;;;;;54.87;27.97;;;;;;;1.36;90.62;99418.49;1660859;85;25205;-67
2021/01/20 08:09:44;;;;;;;58.87;28.77;;;;;;;1.40;90.69;99419.11;1680792;84;22564;-67
2021/01/20 08:12:21;;;;;;;51.90;28.92;;;;;;;1.39;90.86;99418.27;1674532;84;21169;-67
2021/01/20 08:14:47;;;;;;;56.10;25.85;;;;;;;1.47;90.62;99423.37;1691518;84;21603;-67
2021/01/20 08:17:13;;;;;;;52.27;28.15;;;;;;;1.53;90.42;99415.92;1690421;84;27287;-69
2021/01/20 08:19:38;;;;;;;49.60;26.75;;;;;;;1.54;90.86;99424.55;1690644;84;27180;-70
2021/01/20 08:22:12;;;;;;;52.70;30.47;;;;;;;1.46;91.60;99417.80;1693513;83;21403;-70
2021/01/20 08:24:36;;;;;;;49.10;28.00;;;;;;;1.43;92.01;99424.08;1691491;84;21203;-70
2021/01/20 08:27:02;;;;;;;50.37;26.77;;;;;;;1.53;91.67;99424.20;1688794;83;20949;-69
2021/01/20 08:29:27;;;;;;;42.80;24.77;;;;;;;1.60;91.90;99430.58;1691246;84;26784;-69
2021/01/20 08:32:10;;;;;;;48.50;26.30;;;;;;;1.65;91.84;99432.84;1691157;83;27171;-70
2021/01/20 08:34:46;;;;;;;47.45;28.23;;;;;;;1.71;91.74;99434.52;1675013;85;21670;-68
2021/01/20 08:37:17;;;;;;;49.40;27.95;;;;;;;1.71;92.11;99440.17;1697716;82;21279;-68
2021/01/20 08:39:55;;;;;;;52.15;28.90;;;;;;;1.72;92.13;99433.55;1711217;82;21220;-69
2021/01/20 08:42:27;;;;;;;47.30;26.33;;;;;;;1.74;92.11;99438.19;1709194;82;21223;-69
2021/01/20 08:45:15;;;;;;;46.08;26.75;;;;;;;1.84;91.90;99437.48;1706860;82;21188;-68
2021/01/20 08:48:02;;;;;;;50.05;26.57;;;;;;;1.78;92.83;99441.38;1711378;82;21929;-68
2021/01/20 08:50:36;;;;;;;49.50;27.73;;;;;;;1.86;92.27;99444.21;1721037;82;21195;-68
2021/01/20 08:53:10;;;;;;;50.10;27.45;;;;;;;1.82;93.36;99443.27;1711323;82;21585;-69
2021/01/20 08:55:50;;;;;;;46.30;25.57;;;;;;;1.74;93.82;99447.30;1710234;82;21172;-69
2021/01/20 08:58:30;;;;;;;42.27;24.12;;;;;;;1.85;93.92;99450.84;1712548;82;21204;-68
2021/01/20 09:01:04;;;;;;;47.73;24.92;;;;;;;1.93;94.02;99458.91;1714153;82;21650;-70
2021/01/20 09:03:31;;;;;;;45.05;24.75;;;;;;;1.96;94.31;99463.41;1710350;82;21242;-69
2021/01/20 09:05:59;;;;;;;43.33;25.40;;;;;;;2.00;94.58;99465.28;1709250;82;21180;-70
2021/01/20 09:08:26;;;;;;;41.28;25.40;;;;;;;2.03;94.49;99462.93;1688915;83;21234;-69
2021/01/20 09:10:53;;;;;;;45.85;25.82;;;;;;;2.13;93.89;99469.91;1706699;83;21198;-68
2021/01/20 09:13:18;;;;;;;40.58;22.77;;;;;;;2.20;93.45;99465.05;1686484;83;21197;-68
2021/01/20 09:15:47;;;;;;;41.83;23.93;;;;;;;2.29;93.50;99463.52;1702536;83;21645;-67
2021/01/20 09:18:14;;;;;;;39.80;23.40;;;;;;;2.31;93.06;99465.52;1695765;82;21281;-71
2021/01/20 09:20:40;;;;;;;44.27;24.70;;;;;;;2.40;92.60;99462.19;1694381;83;21195;-69
2021/01/20 09:23:06;;;;;;;44.85;25.40;;;;;;;2.40;92.81;99470.00;1697946;83;25999;-68
2021/01/20 09:25:31;;;;;;;38.45;23.90;;;;;;;2.44;92.68;99472.73;1702054;83;21449;-69
2021/01/20 09:27:57;;;;;;;43.87;24.67;;;;;;;2.46;92.59;99470.83;1687563;83;23597;-73
2021/01/20 09:30:23;;;;;;;40.87;23.10;;;;;;;2.47;92.72;99471.19;1686700;83;21745;-71
2021/01/20 09:32:49;;;;;;;41.40;23.95;;;;;;;2.50;92.65;99476.16;1698194;83;28424;-73
2021/01/20 09:35:15;;;;;;;41.08;24.85;;;;;;;2.50;92.69;99468.80;1696728;83;26823;-73
2021/01/20 09:37:42;;;;;;;45.65;26.10;;;;;;;2.50;93.08;99466.19;1694114;83;21379;-74
2021/01/20 09:40:11;;;;;;;46.95;25.40;;;;;;;2.57;92.65;99454.83;1699094;83;21224;-74
2021/01/20 09:42:39;;;;;;;42.50;23.25;;;;;;;2.52;92.79;99456.49;1692567;83;21294;-72
2021/01/20 09:45:07;;;;;;;44.40;25.55;;;;;;;2.54;93.34;99448.55;1700612;83;21206;-73
2021/01/20 09:47:33;;;;;;;44.65;25.17;;;;;;;2.58;92.97;99452.55;1699350;83;21553;-74
2021/01/20 09:49:59;;;;;;;42.87;25.03;;;;;;;2.54;93.21;99448.06;1676301;83;22055;-73
2021/01/20 09:52:25;;;;;;;47.78;25.90;;;;;;;2.48;94.43;99445.46;1700700;83;21189;-72
2021/01/20 09:54:55;;;;;;;47.38;27.30;;;;;;;2.57;94.38;99448.31;1696006;83;21225;-72
2021/01/20 09:57:21;;;;;;;43.92;25.10;;;;;;;2.54;94.45;99447.25;1702698;83;21257;-75
2021/01/20 09:59:49;;;;;;;42.17;24.70;;;;;;;2.58;94.34;99440.82;1700996;83;21163;-71
2021/01/20 10:02:15;;;;;;;44.08;25.25;;;;;;;2.65;93.68;99436.78;1700558;83;21383;-72
2021/01/20 10:04:41;;;;;;;40.15;23.52;;;;;;;2.67;93.94;99441.39;1701298;83;21254;-73
2021/01/20 10:07:08;;;;;;;44.77;26.17;;;;;;;2.65;93.99;99432.88;1720346;81;21805;-74
2021/01/20 10:09:34;;;;;;;45.67;26.68;;;;;;;2.69;94.40;99434.30;1706012;83;21226;-71
2021/01/20 10:12:00;;;;;;;40.83;24.20;;;;;;;2.76;93.68;99432.83;1692894;83;26772;-75
2021/01/20 10:14:26;;;;;;;45.15;25.37;;;;;;;2.68;94.51;99432.62;1701901;83;21371;-74
2021/01/20 10:16:52;;;;;;;41.93;24.80;;;;;;;2.68;94.77;99436.54;1694925;83;24544;-73
2021/01/20 10:19:18;;;;;;;41.63;24.73;;;;;;;2.72;94.71;99433.20;1698132;83;24782;-72
2021/01/20 10:21:44;;;;;;;46.08;25.25;;;;;;;2.73;94.88;99439.59;1693802;83;28347;-73
2021/01/20 10:24:10;;;;;;;45.80;26.65;;;;;;;2.74;95.02;99437.35;1697836;83;27260;-73
2021/01/20 10:26:37;;;;;;;44.08;26.48;;;;;;;2.71;95.11;99438.09;1679275;84;21649;-74
2021/01/20 10:29:04;;;;;;;42.07;24.73;;;;;;;2.78;94.86;99428.80;1711912;82;21261;-72
2021/01/20 10:31:32;;;;;;;45.03;26.87;;;;;;;2.87;94.42;99432.81;1714464;82;21502;-73
2021/01/20 10:34:01;;;;;;;40.40;24.70;;;;;;;2.90;94.35;99425.69;1714659;82;21259;-74
2021/01/20 10:36:27;;;;;;;46.10;26.12;;;;;;;2.91;95.09;99420.34;1715588;82;21224;-74
2021/01/20 10:38:58;;;;;;;46.15;25.43;;;;;;;2.97;95.22;99416.42;1698455;83;21209;-73
2021/01/20 10:41:21;;;;;;;;;;;;;;;3.06;94.77;99415.63;1677752;84;21057;-72
2021/01/20 10:43:48;;;;;;;40.03;24.50;;;;;;;3.11;94.59;99413.50;1689633;83;20521;-71
2021/01/20 10:46:14;;;;;;;44.95;27.52;;;;;;;3.17;94.08;99412.98;1689465;84;21207;-73
2021/01/20 10:48:40;;;;;;;47.27;26.23;;;;;;;3.21;93.76;99418.77;1691588;84;21234;-73
2021/01/20 10:51:06;;;;;;;41.15;25.55;;;;;;;3.21;93.45;99416.98;1691720;84;21795;-71
2021/01/20 10:53:32;;;;;;;42.27;25.37;;;;;;;3.21;93.30;99416.16;1691196;84;25406;-72
2021/01/20 10:55:58;;;;;;;42.67;25.23;;;;;;;3.26;93.30;99413.98;1690985;84;23974;-72
2021/01/20 10:58:24;;;;;;;43.50;26.27;;;;;;;3.29;93.35;99416.34;1692046;83;28422;-74
2021/01/20 11:00:50;;;;;;;46.20;26.87;;;;;;;3.31;93.03;99418.83;1692218;83;26979;-73
2021/01/20 11:03:16;;;;;;;46.28;27.27;;;;;;;3.37;92.72;99413.09;1691286;84;21379;-74
2021/01/20 11:05:43;;;;;;;45.40;25.77;;;;;;;3.35;92.72;99411.10;1690714;83;21131;-74
2021/01/20 11:08:09;;;;;;;45.05;25.88;;;;;;;3.31;93.13;99417.06;1690744;83;21207;-73
2021/01/20 11:10:37;;;;;;;41.00;24.30;;;;;;;3.35;92.89;99408.00;1691625;83;28392;-75
2021/01/20 11:13:07;;;;;;;44.30;24.75;;;;;;;3.45;92.41;99402.02;1676253;84;21629;-74
2021/01/20 11:15:31;;;;;;;48.10;26.33;;;;;;;3.46;92.38;99396.67;1692943;83;21995;-72
2021/01/20 11:17:57;;;;;;;44.30;25.57;;;;;;;3.52;92.46;99396.16;1691498;84;25812;-72
2021/01/20 11:20:23;;;;;;;42.67;26.40;;;;;;;3.52;92.64;99394.03;1691208;83;25136;-73
2021/01/20 11:22:48;;;;;;;43.58;26.82;;;;;;;3.49;92.59;99385.97;1690011;84;28473;-71
2021/01/20 11:25:14;;;;;;;41.80;24.98;;;;;;;3.50;92.62;99394.65;1690873;84;26759;-75
2021/01/20 11:27:40;;;;;;;42.95;26.45;;;;;;;3.47;93.29;99395.72;1671911;84;21369;-74
2021/01/20 11:30:09;;;;;;;42.80;26.23;;;;;;;3.52;92.71;99392.23;1689920;83;25742;-73
2021/01/20 11:32:35;;;;;;;42.40;26.05;;;;;;;3.49;93.48;99389.06;1674620;84;21205;-71